Bei Facebook empfehlenBei Twitter postenGoogle plusPinterest

Das Wetter im Erzgebirge am 09.08.2015

Wetter und Klima am 09.08.2015 Holzhau im Erzgebirge (630m ü.NN)
Letzte gemessene Temperatur und Uhrzeit der Messung23:45:00 Uhr20.40 °C
Temperatur (Maximum / Höchstwert) und Uhrzeit der Messung16:30:00 Uhr28.80 °C
Temperatur (Minimum / Tiefstwert) und Uhrzeit der Messung06:30:0016.50 °C
Errechneter Absolutwert der Temperaturschwankungen zwischen Tmin und Tmax des Tages12.30 K
Errechnete Tagesmitteltemperatur22.41875 °C
Gesamt - Niederschlag des Tages (in flüssiger Form)0.00 Liter / m²
Luftdruck (Maximum / Höchstwert) und Zeitpunkt der Messung00:45:00 Uhr1020.30 hPa
Luftdruck (Minimum / Tiefstwert) und Zeitpunkt der Messung23:45:00 Uhr1017.80 hPa
Errechneter Absolutwert der Luftdruckschwankungen des Tages2.50 hPa
Höchste gemessene Windgeschwindigkeit und Uhrzeit der Messung23:45:00 Uhr0.00 km/h
Errechnete Windhäufigkeit in Relation zu den Messwerten des Tages0.00000 %
Niedrigste Windkühle (Windchill) und Zeitpunkt der Messung06:30:00 Uhr16.50 °C
Taupunkt (Maximum / Höchstwert) und Uhrzeit der Messung16:30:00 Uhr18.60 °C
Taupunkt (Minimum / Tiefstwert) und Uhrzeit der Messung06:30:0014.00 °C
Anzahl der automatisch eingelesenen Messwerte 96

Detaillierte Wetter- und Klima- Messwerte für den 09.08.2015 in Holzhau im Erzgebirge (630m ü.NN)
ZeitTemperaturLuftdruckRel. LuftfeuchteWindWindrichtungWindchillTaupunktNiederschlag l/m²
23:45:0020.40 °C1017.80 hPa80.00 %16.80 °C 
23:30:0020.60 °C1017.90 hPa79.00 %16.80 °C 
23:15:0020.90 °C1018.00 hPa78.00 %16.90 °C 
23:00:0021.10 °C1018.10 hPa77.00 %16.90 °C 
22:45:0021.30 °C1018.00 hPa77.00 %17.10 °C 
22:30:0021.50 °C1017.80 hPa75.00 %16.90 °C 
22:15:0021.70 °C1018.00 hPa74.00 %16.90 °C 
22:00:0021.90 °C1017.80 hPa72.00 %16.60 °C 
21:45:0022.20 °C1017.80 hPa71.00 %16.70 °C 
21:30:0022.60 °C1017.80 hPa69.00 %16.60 °C 
21:15:0022.90 °C1018.00 hPa66.00 %16.20 °C 
21:00:0023.20 °C1017.90 hPa65.00 %16.30 °C 
20:45:0023.50 °C1017.90 hPa64.00 %16.30 °C 
20:30:0023.90 °C1017.90 hPa63.00 %16.40 °C 
20:15:0024.30 °C1018.00 hPa62.00 %16.60 °C 
20:00:0024.80 °C1018.20 hPa60.00 %16.50 °C 
19:45:0025.30 °C1018.20 hPa60.00 %17.00 °C 
19:30:0025.60 °C1018.40 hPa59.00 %17.00 °C 
19:15:0025.90 °C1018.00 hPa58.00 %17.00 °C 
19:00:0026.50 °C1018.00 hPa57.00 %17.30 °C 
18:45:0026.80 °C1018.20 hPa57.00 %17.60 °C 
18:30:0027.00 °C1018.20 hPa56.00 %17.50 °C 
18:15:0027.10 °C1018.50 hPa56.00 %17.60 °C 
18:00:0027.70 °C1018.30 hPa54.00 %17.50 °C 
17:45:0028.10 °C1018.40 hPa54.00 %17.90 °C 
17:30:0028.10 °C1018.60 hPa55.00 %18.20 °C 
17:15:0027.90 °C1018.60 hPa54.00 %17.70 °C 
17:00:0028.00 °C1018.50 hPa54.00 %17.80 °C 
16:45:0028.40 °C1018.60 hPa53.00 %17.90 °C 
16:30:0028.80 °C1018.60 hPa54.00 %18.60 °C 
16:15:0028.30 °C1018.80 hPa53.00 %17.80 °C 
16:00:0028.60 °C1018.80 hPa52.00 %17.80 °C 
15:45:0028.80 °C1018.90 hPa52.00 %18.00 °C 
15:30:0028.00 °C1018.80 hPa55.00 %18.10 °C 
15:15:0028.20 °C1019.00 hPa54.00 %18.00 °C 
15:00:0027.40 °C1019.10 hPa55.00 %17.60 °C 
14:45:0027.10 °C1019.00 hPa56.00 %17.60 °C 
14:30:0027.20 °C1019.10 hPa55.00 %17.40 °C 
14:15:0027.10 °C1019.30 hPa54.00 %17.00 °C 
14:00:0027.50 °C1019.20 hPa54.00 %17.40 °C 
13:45:0027.60 °C1019.30 hPa53.00 %17.20 °C 
13:30:0027.90 °C1019.30 hPa53.00 %17.40 °C 
13:15:0027.40 °C1019.40 hPa56.00 %17.80 °C 
13:00:0027.30 °C1019.20 hPa56.00 %17.80 °C 
12:45:0026.40 °C1019.30 hPa57.00 %17.20 °C 
12:30:0026.30 °C1019.30 hPa56.00 %16.80 °C 
12:15:0025.70 °C1019.40 hPa60.00 %17.40 °C 
12:00:0025.00 °C1019.50 hPa60.00 %16.70 °C 
11:45:0025.20 °C1019.40 hPa60.00 %16.90 °C 
11:30:0025.90 °C1019.50 hPa58.00 %17.00 °C 
11:15:0025.80 °C1019.40 hPa61.00 %17.70 °C 
11:00:0024.90 °C1019.50 hPa62.00 %17.10 °C 
10:45:0024.30 °C1019.80 hPa66.00 %17.50 °C 
10:30:0023.90 °C1019.80 hPa68.00 %17.60 °C 
10:15:0023.10 °C1019.90 hPa70.00 %17.30 °C 
10:00:0022.50 °C1019.90 hPa70.00 %16.80 °C 
09:45:0021.90 °C1020.00 hPa72.00 %16.60 °C 
09:30:0021.50 °C1020.00 hPa73.00 %16.50 °C 
09:15:0021.10 °C1020.10 hPa74.00 %16.30 °C 
09:00:0020.30 °C1020.10 hPa76.00 %15.90 °C 
08:45:0019.40 °C1019.90 hPa78.00 %15.50 °C 
08:30:0019.00 °C1020.00 hPa80.00 %15.50 °C 
08:15:0018.50 °C1019.90 hPa81.00 %15.20 °C 
08:00:0018.20 °C1019.90 hPa82.00 %15.10 °C 
07:45:0017.80 °C1019.80 hPa83.00 %14.90 °C 
07:30:0017.40 °C1019.70 hPa84.00 %14.70 °C 
07:15:0017.20 °C1019.70 hPa85.00 %14.70 °C 
07:00:0016.80 °C1019.70 hPa85.00 %14.30 °C 
06:45:0016.60 °C1019.70 hPa86.00 %14.20 °C 
06:30:0016.50 °C1019.80 hPa85.00 %14.00 °C 
06:15:0016.60 °C1020.00 hPa85.00 %14.10 °C 
06:00:0016.70 °C1019.80 hPa85.00 %14.20 °C 
05:45:0016.70 °C1019.70 hPa85.00 %14.20 °C 
05:30:0016.80 °C1019.60 hPa85.00 %14.30 °C 
05:15:0016.90 °C1019.80 hPa85.00 %14.40 °C 
05:00:0017.20 °C1019.90 hPa85.00 %14.70 °C 
04:45:0017.30 °C1019.80 hPa85.00 %14.80 °C 
04:30:0017.50 °C1019.70 hPa85.00 %15.00 °C 
04:15:0017.60 °C1019.80 hPa85.00 %15.00 °C 
04:00:0017.80 °C1019.70 hPa85.00 %15.20 °C 
03:45:0017.90 °C1019.90 hPa85.00 %15.30 °C 
03:30:0018.10 °C1020.00 hPa85.00 %15.50 °C 
03:15:0018.10 °C1019.70 hPa85.00 %15.50 °C 
03:00:0017.90 °C1019.90 hPa85.00 %15.30 °C 
02:45:0017.80 °C1019.70 hPa84.00 %15.10 °C 
02:30:0017.90 °C1019.70 hPa82.00 %14.80 °C 
02:15:0018.10 °C1019.70 hPa81.00 %14.80 °C 
02:00:0018.30 °C1019.70 hPa80.00 %14.80 °C 
01:45:0018.40 °C1019.80 hPa80.00 %14.90 °C 
01:30:0018.40 °C1019.70 hPa79.00 %14.70 °C 
01:15:0018.50 °C1019.80 hPa79.00 %14.80 °C 
01:00:0018.50 °C1020.10 hPa79.00 %14.80 °C 
00:45:0018.60 °C1020.30 hPa78.00 %14.70 °C 
00:30:0018.80 °C1019.90 hPa77.00 %14.70 °C 
00:15:0018.90 °C1020.20 hPa76.00 %14.60 °C 
00:00:0019.30 °C1020.10 hPa75.00 %14.80 °C 

Permanenter Link zu dieser Seite: Wetter im Erzgebirge am 09.08.2015
Performance-Info: Die Erstellung der Seite / Statistik(en) / Tabelle(n) erforderte 5 Datenbankserver-Abfrage(n) und dauerte 70 Millisekunden. (Dieser Messwert ist von der Gesamt-Auslastung des Servers abhängig.)
Erzgebirge - Wetter | Erzgebirge - Wetter (Mobilgeräte) | Komplette Klimadatenbank